sensor_id;sensor_type;location;lat;lon;timestamp;P1;durP1;ratioP1;P2;durP2;ratioP2
18042;SDS011;9146;48.074;11.968;2023-02-01T00:02:26;3.43;;;3.13;;
18042;SDS011;9146;48.074;11.968;2023-02-01T00:04:53;2.83;;;2.63;;
18042;SDS011;9146;48.074;11.968;2023-02-01T00:07:20;3.77;;;2.80;;
18042;SDS011;9146;48.074;11.968;2023-02-01T00:09:48;2.70;;;2.50;;
18042;SDS011;9146;48.074;11.968;2023-02-01T00:12:15;2.47;;;2.27;;
18042;SDS011;9146;48.074;11.968;2023-02-01T00:14:42;3.00;;;1.90;;
18042;SDS011;9146;48.074;11.968;2023-02-01T00:17:09;3.83;;;2.37;;
18042;SDS011;9146;48.074;11.968;2023-02-01T00:19:36;4.70;;;2.53;;
18042;SDS011;9146;48.074;11.968;2023-02-01T00:22:03;2.23;;;2.10;;
18042;SDS011;9146;48.074;11.968;2023-02-01T00:24:30;3.70;;;2.83;;
18042;SDS011;9146;48.074;11.968;2023-02-01T00:26:58;5.53;;;2.70;;
18042;SDS011;9146;48.074;11.968;2023-02-01T00:29:25;2.80;;;2.17;;
18042;SDS011;9146;48.074;11.968;2023-02-01T00:31:52;2.27;;;2.07;;
18042;SDS011;9146;48.074;11.968;2023-02-01T00:34:19;1.97;;;1.87;;
18042;SDS011;9146;48.074;11.968;2023-02-01T00:36:46;2.13;;;2.03;;
18042;SDS011;9146;48.074;11.968;2023-02-01T00:39:13;2.40;;;2.20;;
18042;SDS011;9146;48.074;11.968;2023-02-01T00:41:41;2.40;;;1.93;;
18042;SDS011;9146;48.074;11.968;2023-02-01T00:44:09;2.20;;;2.07;;
18042;SDS011;9146;48.074;11.968;2023-02-01T00:46:36;5.90;;;2.00;;
18042;SDS011;9146;48.074;11.968;2023-02-01T00:49:03;2.10;;;2.00;;
18042;SDS011;9146;48.074;11.968;2023-02-01T00:51:32;2.43;;;2.20;;
18042;SDS011;9146;48.074;11.968;2023-02-01T00:53:59;2.00;;;1.90;;
18042;SDS011;9146;48.074;11.968;2023-02-01T00:56:26;3.27;;;3.03;;
18042;SDS011;9146;48.074;11.968;2023-02-01T00:58:53;2.37;;;2.17;;
18042;SDS011;9146;48.074;11.968;2023-02-01T01:01:22;2.00;;;1.80;;
18042;SDS011;9146;48.074;11.968;2023-02-01T01:03:51;2.40;;;2.20;;
18042;SDS011;9146;48.074;11.968;2023-02-01T01:06:21;3.70;;;2.70;;
18042;SDS011;9146;48.074;11.968;2023-02-01T01:08:50;2.93;;;2.07;;
18042;SDS011;9146;48.074;11.968;2023-02-01T01:11:18;3.03;;;2.57;;
18042;SDS011;9146;48.074;11.968;2023-02-01T01:13:47;3.67;;;2.60;;
18042;SDS011;9146;48.074;11.968;2023-02-01T01:16:15;3.13;;;2.10;;
18042;SDS011;9146;48.074;11.968;2023-02-01T01:18:44;6.03;;;2.47;;
18042;SDS011;9146;48.074;11.968;2023-02-01T01:21:12;3.50;;;2.70;;
18042;SDS011;9146;48.074;11.968;2023-02-01T01:23:40;4.27;;;2.77;;
18042;SDS011;9146;48.074;11.968;2023-02-01T01:26:09;4.50;;;2.50;;
18042;SDS011;9146;48.074;11.968;2023-02-01T01:28:38;2.90;;;2.60;;
18042;SDS011;9146;48.074;11.968;2023-02-01T01:31:07;3.40;;;2.63;;
18042;SDS011;9146;48.074;11.968;2023-02-01T01:33:34;3.47;;;2.57;;
18042;SDS011;9146;48.074;11.968;2023-02-01T01:36:03;2.90;;;2.70;;
18042;SDS011;9146;48.074;11.968;2023-02-01T01:38:31;3.00;;;2.60;;
18042;SDS011;9146;48.074;11.968;2023-02-01T01:40:58;3.00;;;2.70;;
18042;SDS011;9146;48.074;11.968;2023-02-01T01:43:24;3.47;;;2.83;;
18042;SDS011;9146;48.074;11.968;2023-02-01T01:45:51;3.40;;;3.10;;
18042;SDS011;9146;48.074;11.968;2023-02-01T01:48:19;2.60;;;2.33;;
18042;SDS011;9146;48.074;11.968;2023-02-01T01:50:52;2.50;;;2.23;;
18042;SDS011;9146;48.074;11.968;2023-02-01T01:53:25;2.80;;;2.40;;
18042;SDS011;9146;48.074;11.968;2023-02-01T01:55:54;2.83;;;2.63;;
18042;SDS011;9146;48.074;11.968;2023-02-01T01:58:23;3.43;;;2.60;;
18042;SDS011;9146;48.074;11.968;2023-02-01T02:00:53;3.23;;;2.87;;
18042;SDS011;9146;48.074;11.968;2023-02-01T02:03:21;2.73;;;2.50;;
18042;SDS011;9146;48.074;11.968;2023-02-01T02:05:51;3.27;;;2.97;;
18042;SDS011;9146;48.074;11.968;2023-02-01T02:08:21;2.77;;;2.57;;
18042;SDS011;9146;48.074;11.968;2023-02-01T02:10:51;2.80;;;2.60;;
18042;SDS011;9146;48.074;11.968;2023-02-01T02:13:29;4.70;;;3.37;;
18042;SDS011;9146;48.074;11.968;2023-02-01T02:16:02;5.93;;;3.00;;
18042;SDS011;9146;48.074;11.968;2023-02-01T02:18:35;3.17;;;2.87;;
18042;SDS011;9146;48.074;11.968;2023-02-01T02:21:10;3.30;;;3.00;;
18042;SDS011;9146;48.074;11.968;2023-02-01T02:23:54;3.90;;;3.37;;
18042;SDS011;9146;48.074;11.968;2023-02-01T02:29:31;4.20;;;2.70;;
18042;SDS011;9146;48.074;11.968;2023-02-01T02:32:23;3.63;;;3.30;;
18042;SDS011;9146;48.074;11.968;2023-02-01T02:35:29;3.67;;;3.23;;
18042;SDS011;9146;48.074;11.968;2023-02-01T02:38:05;4.03;;;3.63;;
18042;SDS011;9146;48.074;11.968;2023-02-01T02:40:41;6.87;;;3.70;;
18042;SDS011;9146;48.074;11.968;2023-02-01T02:43:16;6.87;;;3.57;;
18042;SDS011;9146;48.074;11.968;2023-02-01T02:46:06;3.33;;;2.93;;
18042;SDS011;9146;48.074;11.968;2023-02-01T02:49:00;3.60;;;3.30;;
18042;SDS011;9146;48.074;11.968;2023-02-01T02:51:32;3.67;;;3.37;;
18042;SDS011;9146;48.074;11.968;2023-02-01T02:54:22;3.90;;;3.23;;
18042;SDS011;9146;48.074;11.968;2023-02-01T02:57:14;4.30;;;3.90;;
18042;SDS011;9146;48.074;11.968;2023-02-01T03:00:03;4.03;;;3.20;;
18042;SDS011;9146;48.074;11.968;2023-02-01T03:02:51;2.77;;;2.57;;
18042;SDS011;9146;48.074;11.968;2023-02-01T03:05:35;5.93;;;3.67;;
18042;SDS011;9146;48.074;11.968;2023-02-01T03:08:12;3.87;;;3.50;;
18042;SDS011;9146;48.074;11.968;2023-02-01T03:10:44;3.67;;;3.10;;
18042;SDS011;9146;48.074;11.968;2023-02-01T03:13:17;3.43;;;3.13;;
18042;SDS011;9146;48.074;11.968;2023-02-01T03:15:53;4.77;;;3.80;;
18042;SDS011;9146;48.074;11.968;2023-02-01T03:18:28;4.40;;;2.90;;
18042;SDS011;9146;48.074;11.968;2023-02-01T03:20:59;5.33;;;3.20;;
18042;SDS011;9146;48.074;11.968;2023-02-01T03:23:31;3.90;;;3.40;;
18042;SDS011;9146;48.074;11.968;2023-02-01T03:26:01;3.27;;;3.00;;
18042;SDS011;9146;48.074;11.968;2023-02-01T03:28:30;4.47;;;3.77;;
18042;SDS011;9146;48.074;11.968;2023-02-01T03:31:00;3.50;;;3.17;;
18042;SDS011;9146;48.074;11.968;2023-02-01T03:33:28;3.60;;;3.30;;
18042;SDS011;9146;48.074;11.968;2023-02-01T03:36:02;4.93;;;2.83;;
18042;SDS011;9146;48.074;11.968;2023-02-01T03:38:43;3.27;;;3.00;;
18042;SDS011;9146;48.074;11.968;2023-02-01T03:41:17;4.33;;;3.93;;
18042;SDS011;9146;48.074;11.968;2023-02-01T03:43:51;3.83;;;3.50;;
18042;SDS011;9146;48.074;11.968;2023-02-01T03:46:23;3.30;;;3.00;;
18042;SDS011;9146;48.074;11.968;2023-02-01T03:48:57;3.83;;;2.50;;
18042;SDS011;9146;48.074;11.968;2023-02-01T03:51:27;3.10;;;2.80;;
18042;SDS011;9146;48.074;11.968;2023-02-01T03:53:57;2.63;;;2.53;;
18042;SDS011;9146;48.074;11.968;2023-02-01T03:56:27;5.73;;;2.80;;
18042;SDS011;9146;48.074;11.968;2023-02-01T03:58:55;5.90;;;3.40;;
18042;SDS011;9146;48.074;11.968;2023-02-01T04:01:26;3.40;;;3.10;;
18042;SDS011;9146;48.074;11.968;2023-02-01T04:03:54;3.37;;;2.70;;
18042;SDS011;9146;48.074;11.968;2023-02-01T04:06:22;3.50;;;2.70;;
18042;SDS011;9146;48.074;11.968;2023-02-01T04:08:49;3.00;;;2.70;;
18042;SDS011;9146;48.074;11.968;2023-02-01T04:11:17;2.80;;;2.60;;
18042;SDS011;9146;48.074;11.968;2023-02-01T04:13:44;3.40;;;2.80;;
18042;SDS011;9146;48.074;11.968;2023-02-01T04:16:11;4.23;;;2.47;;
18042;SDS011;9146;48.074;11.968;2023-02-01T04:18:38;3.23;;;2.93;;
18042;SDS011;9146;48.074;11.968;2023-02-01T04:21:05;2.10;;;2.00;;
18042;SDS011;9146;48.074;11.968;2023-02-01T04:23:32;2.83;;;2.63;;
18042;SDS011;9146;48.074;11.968;2023-02-01T04:25:59;3.00;;;2.47;;
18042;SDS011;9146;48.074;11.968;2023-02-01T04:28:28;3.17;;;2.97;;
18042;SDS011;9146;48.074;11.968;2023-02-01T04:30:55;3.33;;;2.60;;
18042;SDS011;9146;48.074;11.968;2023-02-01T04:33:22;9.27;;;2.83;;
18042;SDS011;9146;48.074;11.968;2023-02-01T04:35:49;3.33;;;2.73;;
18042;SDS011;9146;48.074;11.968;2023-02-01T04:38:16;3.73;;;2.97;;
18042;SDS011;9146;48.074;11.968;2023-02-01T04:40:43;2.90;;;2.53;;
18042;SDS011;9146;48.074;11.968;2023-02-01T04:43:12;3.20;;;2.90;;
18042;SDS011;9146;48.074;11.968;2023-02-01T04:45:40;4.20;;;3.00;;
18042;SDS011;9146;48.074;11.968;2023-02-01T04:48:07;2.87;;;2.57;;
18042;SDS011;9146;48.074;11.968;2023-02-01T04:50:34;3.23;;;2.93;;
18042;SDS011;9146;48.074;11.968;2023-02-01T04:53:01;2.67;;;2.47;;
18042;SDS011;9146;48.074;11.968;2023-02-01T04:55:28;6.60;;;2.53;;
18042;SDS011;9146;48.074;11.968;2023-02-01T04:57:55;2.63;;;2.43;;
18042;SDS011;9146;48.074;11.968;2023-02-01T05:00:22;3.13;;;2.50;;
18042;SDS011;9146;48.074;11.968;2023-02-01T05:02:51;4.70;;;2.60;;
18042;SDS011;9146;48.074;11.968;2023-02-01T05:05:18;3.17;;;2.87;;
18042;SDS011;9146;48.074;11.968;2023-02-01T05:07:45;3.50;;;2.90;;
18042;SDS011;9146;48.074;11.968;2023-02-01T05:10:12;2.73;;;2.47;;
18042;SDS011;9146;48.074;11.968;2023-02-01T05:12:39;3.30;;;2.73;;
18042;SDS011;9146;48.074;11.968;2023-02-01T05:15:24;3.53;;;3.23;;
18042;SDS011;9146;48.074;11.968;2023-02-01T05:17:52;3.13;;;2.50;;
18042;SDS011;9146;48.074;11.968;2023-02-01T05:20:19;3.10;;;2.73;;
18042;SDS011;9146;48.074;11.968;2023-02-01T05:22:46;2.60;;;2.23;;
18042;SDS011;9146;48.074;11.968;2023-02-01T05:25:13;3.13;;;2.90;;
18042;SDS011;9146;48.074;11.968;2023-02-01T05:27:40;4.50;;;3.47;;
18042;SDS011;9146;48.074;11.968;2023-02-01T05:30:07;4.00;;;3.33;;
18042;SDS011;9146;48.074;11.968;2023-02-01T05:32:35;2.87;;;2.67;;
18042;SDS011;9146;48.074;11.968;2023-02-01T05:35:04;5.13;;;2.80;;
18042;SDS011;9146;48.074;11.968;2023-02-01T05:37:31;2.67;;;2.47;;
18042;SDS011;9146;48.074;11.968;2023-02-01T05:39:58;3.63;;;3.17;;
18042;SDS011;9146;48.074;11.968;2023-02-01T05:42:25;3.30;;;3.00;;
18042;SDS011;9146;48.074;11.968;2023-02-01T05:44:52;3.83;;;3.40;;
18042;SDS011;9146;48.074;11.968;2023-02-01T05:47:19;3.43;;;2.93;;
18042;SDS011;9146;48.074;11.968;2023-02-01T05:49:46;2.77;;;2.57;;
18042;SDS011;9146;48.074;11.968;2023-02-01T05:52:14;3.33;;;3.03;;
18042;SDS011;9146;48.074;11.968;2023-02-01T05:54:44;3.70;;;3.40;;
18042;SDS011;9146;48.074;11.968;2023-02-01T05:57:11;5.77;;;4.03;;
18042;SDS011;9146;48.074;11.968;2023-02-01T05:59:38;4.47;;;3.60;;
18042;SDS011;9146;48.074;11.968;2023-02-01T06:02:09;7.33;;;3.50;;
18042;SDS011;9146;48.074;11.968;2023-02-01T06:04:37;6.13;;;3.73;;
18042;SDS011;9146;48.074;11.968;2023-02-01T06:07:04;4.60;;;3.60;;
18042;SDS011;9146;48.074;11.968;2023-02-01T06:09:33;3.10;;;2.80;;
18042;SDS011;9146;48.074;11.968;2023-02-01T06:12:00;4.40;;;4.00;;
18042;SDS011;9146;48.074;11.968;2023-02-01T06:14:27;3.40;;;3.10;;
18042;SDS011;9146;48.074;11.968;2023-02-01T06:16:54;6.63;;;3.80;;
18042;SDS011;9146;48.074;11.968;2023-02-01T06:19:21;5.97;;;3.70;;
18042;SDS011;9146;48.074;11.968;2023-02-01T06:21:49;3.77;;;3.47;;
18042;SDS011;9146;48.074;11.968;2023-02-01T06:24:16;3.70;;;3.00;;
18042;SDS011;9146;48.074;11.968;2023-02-01T06:26:45;3.83;;;3.10;;
18042;SDS011;9146;48.074;11.968;2023-02-01T06:29:12;3.83;;;3.07;;
18042;SDS011;9146;48.074;11.968;2023-02-01T06:31:39;3.80;;;3.00;;
18042;SDS011;9146;48.074;11.968;2023-02-01T06:34:07;4.10;;;3.50;;
18042;SDS011;9146;48.074;11.968;2023-02-01T06:36:34;2.97;;;2.63;;
18042;SDS011;9146;48.074;11.968;2023-02-01T06:39:01;3.60;;;3.10;;
18042;SDS011;9146;48.074;11.968;2023-02-01T06:41:28;6.67;;;3.77;;
18042;SDS011;9146;48.074;11.968;2023-02-01T06:43:56;5.00;;;3.13;;
18042;SDS011;9146;48.074;11.968;2023-02-01T06:46:23;3.50;;;3.20;;
18042;SDS011;9146;48.074;11.968;2023-02-01T06:48:50;4.13;;;3.73;;
18042;SDS011;9146;48.074;11.968;2023-02-01T06:51:20;4.57;;;3.80;;
18042;SDS011;9146;48.074;11.968;2023-02-01T06:53:48;3.80;;;3.23;;
18042;SDS011;9146;48.074;11.968;2023-02-01T06:56:15;4.73;;;3.83;;
18042;SDS011;9146;48.074;11.968;2023-02-01T06:58:43;4.87;;;3.80;;
18042;SDS011;9146;48.074;11.968;2023-02-01T07:01:11;5.10;;;3.67;;
18042;SDS011;9146;48.074;11.968;2023-02-01T07:03:38;3.93;;;3.30;;
18042;SDS011;9146;48.074;11.968;2023-02-01T07:06:06;4.13;;;3.40;;
18042;SDS011;9146;48.074;11.968;2023-02-01T07:08:34;3.67;;;3.00;;
18042;SDS011;9146;48.074;11.968;2023-02-01T07:11:03;3.80;;;3.30;;
18042;SDS011;9146;48.074;11.968;2023-02-01T07:13:30;3.43;;;3.13;;
18042;SDS011;9146;48.074;11.968;2023-02-01T07:15:58;3.50;;;3.17;;
18042;SDS011;9146;48.074;11.968;2023-02-01T07:18:27;3.60;;;3.30;;
18042;SDS011;9146;48.074;11.968;2023-02-01T07:20:54;2.87;;;2.67;;
18042;SDS011;9146;48.074;11.968;2023-02-01T07:23:21;4.53;;;3.10;;
18042;SDS011;9146;48.074;11.968;2023-02-01T07:25:48;3.13;;;2.80;;
18042;SDS011;9146;48.074;11.968;2023-02-01T07:28:18;3.63;;;3.20;;
18042;SDS011;9146;48.074;11.968;2023-02-01T07:30:45;3.27;;;2.97;;
18042;SDS011;9146;48.074;11.968;2023-02-01T07:33:15;3.10;;;2.80;;
18042;SDS011;9146;48.074;11.968;2023-02-01T07:35:45;3.50;;;3.17;;
18042;SDS011;9146;48.074;11.968;2023-02-01T07:38:12;4.07;;;3.50;;
18042;SDS011;9146;48.074;11.968;2023-02-01T07:40:39;4.23;;;3.10;;
18042;SDS011;9146;48.074;11.968;2023-02-01T07:43:06;3.13;;;2.80;;
18042;SDS011;9146;48.074;11.968;2023-02-01T07:45:34;3.00;;;2.70;;
18042;SDS011;9146;48.074;11.968;2023-02-01T07:48:01;3.40;;;3.13;;
18042;SDS011;9146;48.074;11.968;2023-02-01T07:50:29;3.53;;;2.60;;
18042;SDS011;9146;48.074;11.968;2023-02-01T07:52:59;3.07;;;2.77;;
18042;SDS011;9146;48.074;11.968;2023-02-01T07:55:26;2.50;;;2.30;;
18042;SDS011;9146;48.074;11.968;2023-02-01T07:57:56;3.23;;;2.93;;
18042;SDS011;9146;48.074;11.968;2023-02-01T08:00:24;5.40;;;2.83;;
18042;SDS011;9146;48.074;11.968;2023-02-01T08:03:08;3.87;;;2.60;;
18042;SDS011;9146;48.074;11.968;2023-02-01T08:05:35;3.73;;;2.53;;
18042;SDS011;9146;48.074;11.968;2023-02-01T08:08:05;2.50;;;2.20;;
18042;SDS011;9146;48.074;11.968;2023-02-01T08:10:32;3.03;;;2.53;;
18042;SDS011;9146;48.074;11.968;2023-02-01T08:13:00;2.73;;;2.50;;
18042;SDS011;9146;48.074;11.968;2023-02-01T08:15:27;4.60;;;2.80;;
18042;SDS011;9146;48.074;11.968;2023-02-01T08:17:55;2.93;;;2.73;;
18042;SDS011;9146;48.074;11.968;2023-02-01T08:20:23;4.93;;;2.93;;
18042;SDS011;9146;48.074;11.968;2023-02-01T08:22:51;5.53;;;2.70;;
18042;SDS011;9146;48.074;11.968;2023-02-01T08:25:19;3.27;;;2.80;;
18042;SDS011;9146;48.074;11.968;2023-02-01T08:27:46;2.67;;;2.40;;
18042;SDS011;9146;48.074;11.968;2023-02-01T08:30:13;4.30;;;2.80;;
18042;SDS011;9146;48.074;11.968;2023-02-01T08:32:41;2.30;;;2.20;;
18042;SDS011;9146;48.074;11.968;2023-02-01T08:35:08;3.13;;;2.40;;
18042;SDS011;9146;48.074;11.968;2023-02-01T08:37:35;4.30;;;3.43;;
18042;SDS011;9146;48.074;11.968;2023-02-01T08:40:02;3.17;;;2.70;;
18042;SDS011;9146;48.074;11.968;2023-02-01T08:42:31;2.50;;;2.30;;
18042;SDS011;9146;48.074;11.968;2023-02-01T08:45:17;3.63;;;2.60;;
18042;SDS011;9146;48.074;11.968;2023-02-01T08:47:44;2.43;;;2.23;;
18042;SDS011;9146;48.074;11.968;2023-02-01T08:50:13;3.13;;;2.17;;
18042;SDS011;9146;48.074;11.968;2023-02-01T08:52:40;2.80;;;2.60;;
18042;SDS011;9146;48.074;11.968;2023-02-01T08:55:07;2.33;;;2.13;;
18042;SDS011;9146;48.074;11.968;2023-02-01T08:57:36;2.93;;;2.40;;
18042;SDS011;9146;48.074;11.968;2023-02-01T09:00:04;2.50;;;2.30;;
18042;SDS011;9146;48.074;11.968;2023-02-01T09:02:33;4.30;;;2.60;;
18042;SDS011;9146;48.074;11.968;2023-02-01T09:05:00;2.00;;;1.90;;
18042;SDS011;9146;48.074;11.968;2023-02-01T09:07:28;2.90;;;2.70;;
18042;SDS011;9146;48.074;11.968;2023-02-01T09:09:55;5.10;;;3.07;;
18042;SDS011;9146;48.074;11.968;2023-02-01T09:12:26;6.80;;;3.67;;
18042;SDS011;9146;48.074;11.968;2023-02-01T09:14:54;2.93;;;2.57;;
18042;SDS011;9146;48.074;11.968;2023-02-01T09:17:21;2.97;;;2.60;;
18042;SDS011;9146;48.074;11.968;2023-02-01T09:19:48;2.50;;;2.30;;
18042;SDS011;9146;48.074;11.968;2023-02-01T09:22:15;3.30;;;2.53;;
18042;SDS011;9146;48.074;11.968;2023-02-01T09:24:43;2.20;;;2.00;;
18042;SDS011;9146;48.074;11.968;2023-02-01T09:27:10;3.63;;;2.50;;
18042;SDS011;9146;48.074;11.968;2023-02-01T09:29:37;2.20;;;2.00;;
18042;SDS011;9146;48.074;11.968;2023-02-01T09:32:06;2.97;;;2.20;;
18042;SDS011;9146;48.074;11.968;2023-02-01T09:34:33;2.73;;;2.53;;
18042;SDS011;9146;48.074;11.968;2023-02-01T09:37:00;2.47;;;2.27;;
18042;SDS011;9146;48.074;11.968;2023-02-01T09:39:27;2.40;;;2.20;;
18042;SDS011;9146;48.074;11.968;2023-02-01T09:41:58;5.07;;;2.30;;
18042;SDS011;9146;48.074;11.968;2023-02-01T09:44:37;2.60;;;2.13;;
18042;SDS011;9146;48.074;11.968;2023-02-01T09:47:15;2.33;;;2.03;;
18042;SDS011;9146;48.074;11.968;2023-02-01T09:49:47;2.23;;;2.00;;
18042;SDS011;9146;48.074;11.968;2023-02-01T09:52:19;3.10;;;1.70;;
18042;SDS011;9146;48.074;11.968;2023-02-01T09:54:54;3.20;;;2.33;;
18042;SDS011;9146;48.074;11.968;2023-02-01T09:57:28;2.23;;;2.10;;
18042;SDS011;9146;48.074;11.968;2023-02-01T10:00:09;3.13;;;2.20;;
18042;SDS011;9146;48.074;11.968;2023-02-01T10:02:45;7.80;;;2.60;;
18042;SDS011;9146;48.074;11.968;2023-02-01T10:05:12;2.17;;;2.07;;
18042;SDS011;9146;48.074;11.968;2023-02-01T10:07:44;2.23;;;1.50;;
18042;SDS011;9146;48.074;11.968;2023-02-01T10:10:21;2.30;;;2.07;;
18042;SDS011;9146;48.074;11.968;2023-02-01T10:15:56;2.03;;;1.93;;
18042;SDS011;9146;48.074;11.968;2023-02-01T10:21:39;2.90;;;2.30;;
18042;SDS011;9146;48.074;11.968;2023-02-01T10:24:16;3.63;;;2.00;;
18042;SDS011;9146;48.074;11.968;2023-02-01T10:26:51;2.63;;;1.60;;
18042;SDS011;9146;48.074;11.968;2023-02-01T10:29:25;3.20;;;2.07;;
18042;SDS011;9146;48.074;11.968;2023-02-01T10:31:57;3.23;;;1.93;;
18042;SDS011;9146;48.074;11.968;2023-02-01T10:34:26;2.20;;;1.80;;
18042;SDS011;9146;48.074;11.968;2023-02-01T10:36:56;2.10;;;1.97;;
18042;SDS011;9146;48.074;11.968;2023-02-01T10:39:26;2.87;;;2.53;;
18042;SDS011;9146;48.074;11.968;2023-02-01T10:41:54;2.23;;;2.00;;
18042;SDS011;9146;48.074;11.968;2023-02-01T10:44:23;2.17;;;2.00;;
18042;SDS011;9146;48.074;11.968;2023-02-01T10:46:52;2.40;;;1.87;;
18042;SDS011;9146;48.074;11.968;2023-02-01T10:49:20;2.13;;;2.03;;
18042;SDS011;9146;48.074;11.968;2023-02-01T10:51:54;2.50;;;2.30;;
18042;SDS011;9146;48.074;11.968;2023-02-01T10:54:31;2.50;;;1.80;;
18042;SDS011;9146;48.074;11.968;2023-02-01T10:57:00;4.30;;;1.87;;
18042;SDS011;9146;48.074;11.968;2023-02-01T10:59:27;4.60;;;1.90;;
18042;SDS011;9146;48.074;11.968;2023-02-01T11:01:58;2.90;;;2.00;;
18042;SDS011;9146;48.074;11.968;2023-02-01T11:04:26;3.93;;;2.10;;
18042;SDS011;9146;48.074;11.968;2023-02-01T11:07:05;3.13;;;1.60;;
18042;SDS011;9146;48.074;11.968;2023-02-01T11:09:35;2.00;;;1.90;;
18042;SDS011;9146;48.074;11.968;2023-02-01T11:12:20;1.70;;;1.60;;
18042;SDS011;9146;48.074;11.968;2023-02-01T11:15:02;1.90;;;1.80;;
18042;SDS011;9146;48.074;11.968;2023-02-01T11:17:42;4.50;;;2.17;;
18042;SDS011;9146;48.074;11.968;2023-02-01T11:20:13;2.57;;;1.53;;
18042;SDS011;9146;48.074;11.968;2023-02-01T11:22:46;2.42;;;2.22;;
18042;SDS011;9146;48.074;11.968;2023-02-01T11:25:14;2.10;;;2.00;;
18042;SDS011;9146;48.074;11.968;2023-02-01T11:27:43;2.37;;;2.20;;
18042;SDS011;9146;48.074;11.968;2023-02-01T11:30:14;2.23;;;1.80;;
18042;SDS011;9146;48.074;11.968;2023-02-01T11:32:44;3.03;;;1.80;;
18042;SDS011;9146;48.074;11.968;2023-02-01T11:35:16;1.90;;;1.77;;
18042;SDS011;9146;48.074;11.968;2023-02-01T11:40:25;2.60;;;2.40;;
18042;SDS011;9146;48.074;11.968;2023-02-01T11:42:54;2.37;;;2.17;;
18042;SDS011;9146;48.074;11.968;2023-02-01T11:45:25;2.07;;;1.83;;
18042;SDS011;9146;48.074;11.968;2023-02-01T11:47:54;2.40;;;2.00;;
18042;SDS011;9146;48.074;11.968;2023-02-01T11:50:25;2.50;;;2.30;;
18042;SDS011;9146;48.074;11.968;2023-02-01T11:53:09;3.07;;;2.30;;
18042;SDS011;9146;48.074;11.968;2023-02-01T11:55:53;3.70;;;2.60;;
18042;SDS011;9146;48.074;11.968;2023-02-01T12:01:21;2.43;;;2.23;;
18042;SDS011;9146;48.074;11.968;2023-02-01T12:04:04;2.90;;;2.70;;
18042;SDS011;9146;48.074;11.968;2023-02-01T12:06:58;3.50;;;2.37;;
18042;SDS011;9146;48.074;11.968;2023-02-01T12:09:34;2.40;;;2.20;;
18042;SDS011;9146;48.074;11.968;2023-02-01T12:12:22;2.67;;;2.47;;
18042;SDS011;9146;48.074;11.968;2023-02-01T12:14:59;4.10;;;2.23;;
18042;SDS011;9146;48.074;11.968;2023-02-01T12:17:48;2.73;;;2.50;;
18042;SDS011;9146;48.074;11.968;2023-02-01T12:20:47;2.70;;;2.50;;
18042;SDS011;9146;48.074;11.968;2023-02-01T12:23:34;4.17;;;2.70;;
18042;SDS011;9146;48.074;11.968;2023-02-01T12:26:35;3.10;;;2.80;;
18042;SDS011;9146;48.074;11.968;2023-02-01T12:29:17;4.90;;;2.50;;
18042;SDS011;9146;48.074;11.968;2023-02-01T12:31:57;2.50;;;2.30;;
18042;SDS011;9146;48.074;11.968;2023-02-01T12:34:41;2.70;;;2.50;;
18042;SDS011;9146;48.074;11.968;2023-02-01T12:37:21;2.50;;;2.30;;
18042;SDS011;9146;48.074;11.968;2023-02-01T12:39:59;3.03;;;2.33;;
18042;SDS011;9146;48.074;11.968;2023-02-01T12:42:47;6.90;;;4.07;;
18042;SDS011;9146;48.074;11.968;2023-02-01T12:45:20;3.93;;;2.30;;
18042;SDS011;9146;48.074;11.968;2023-02-01T12:47:57;2.50;;;2.10;;
18042;SDS011;9146;48.074;11.968;2023-02-01T12:50:32;2.87;;;2.40;;
18042;SDS011;9146;48.074;11.968;2023-02-01T12:53:06;2.97;;;2.33;;
18042;SDS011;9146;48.074;11.968;2023-02-01T12:55:38;4.23;;;2.70;;
18042;SDS011;9146;48.074;11.968;2023-02-01T12:58:15;4.53;;;2.80;;
18042;SDS011;9146;48.074;11.968;2023-02-01T13:00:46;5.57;;;2.47;;
18042;SDS011;9146;48.074;11.968;2023-02-01T13:03:22;3.20;;;2.80;;
18042;SDS011;9146;48.074;11.968;2023-02-01T13:06:01;4.23;;;2.47;;
18042;SDS011;9146;48.074;11.968;2023-02-01T13:08:35;4.50;;;3.10;;
18042;SDS011;9146;48.074;11.968;2023-02-01T13:11:09;5.27;;;2.90;;
18042;SDS011;9146;48.074;11.968;2023-02-01T13:13:44;4.10;;;2.63;;
18042;SDS011;9146;48.074;11.968;2023-02-01T13:16:20;3.77;;;2.10;;
18042;SDS011;9146;48.074;11.968;2023-02-01T13:18:55;3.33;;;2.97;;
18042;SDS011;9146;48.074;11.968;2023-02-01T13:21:31;8.97;;;3.53;;
18042;SDS011;9146;48.074;11.968;2023-02-01T13:24:00;2.80;;;2.20;;
18042;SDS011;9146;48.074;11.968;2023-02-01T13:26:28;4.17;;;2.57;;
18042;SDS011;9146;48.074;11.968;2023-02-01T13:28:57;4.87;;;2.60;;
18042;SDS011;9146;48.074;11.968;2023-02-01T13:31:40;5.93;;;2.40;;
18042;SDS011;9146;48.074;11.968;2023-02-01T13:37:33;6.67;;;2.40;;
18042;SDS011;9146;48.074;11.968;2023-02-01T13:40:17;3.20;;;2.60;;
18042;SDS011;9146;48.074;11.968;2023-02-01T13:42:54;9.53;;;2.40;;
18042;SDS011;9146;48.074;11.968;2023-02-01T13:45:26;3.00;;;2.33;;
18042;SDS011;9146;48.074;11.968;2023-02-01T13:47:57;2.63;;;2.03;;
18042;SDS011;9146;48.074;11.968;2023-02-01T13:50:27;4.73;;;2.60;;
18042;SDS011;9146;48.074;11.968;2023-02-01T13:52:56;7.57;;;3.43;;
18042;SDS011;9146;48.074;11.968;2023-02-01T13:55:29;2.63;;;2.43;;
18042;SDS011;9146;48.074;11.968;2023-02-01T13:58:04;4.43;;;2.63;;
18042;SDS011;9146;48.074;11.968;2023-02-01T14:00:41;3.83;;;2.40;;
18042;SDS011;9146;48.074;11.968;2023-02-01T14:03:13;3.63;;;2.50;;
18042;SDS011;9146;48.074;11.968;2023-02-01T14:06:01;5.07;;;2.40;;
18042;SDS011;9146;48.074;11.968;2023-02-01T14:11:42;3.37;;;2.50;;
18042;SDS011;9146;48.074;11.968;2023-02-01T14:23:19;2.73;;;2.50;;
18042;SDS011;9146;48.074;11.968;2023-02-01T14:26:00;2.80;;;2.53;;
18042;SDS011;9146;48.074;11.968;2023-02-01T14:28:30;2.57;;;2.37;;
18042;SDS011;9146;48.074;11.968;2023-02-01T14:30:57;5.60;;;3.00;;
18042;SDS011;9146;48.074;11.968;2023-02-01T14:33:27;2.47;;;2.27;;
18042;SDS011;9146;48.074;11.968;2023-02-01T14:36:02;5.83;;;2.80;;
18042;SDS011;9146;48.074;11.968;2023-02-01T14:38:33;3.10;;;2.40;;
18042;SDS011;9146;48.074;11.968;2023-02-01T14:41:13;2.30;;;2.10;;
18042;SDS011;9146;48.074;11.968;2023-02-01T14:44:14;1.93;;;1.80;;
18042;SDS011;9146;48.074;11.968;2023-02-01T14:47:02;5.73;;;2.10;;
18042;SDS011;9146;48.074;11.968;2023-02-01T14:53:04;2.10;;;2.00;;
18042;SDS011;9146;48.074;11.968;2023-02-01T14:55:49;3.07;;;2.60;;
18042;SDS011;9146;48.074;11.968;2023-02-01T14:58:27;2.90;;;2.60;;
18042;SDS011;9146;48.074;11.968;2023-02-01T15:01:03;9.27;;;2.57;;
18042;SDS011;9146;48.074;11.968;2023-02-01T15:03:40;5.20;;;2.37;;
18042;SDS011;9146;48.074;11.968;2023-02-01T15:06:24;2.47;;;2.27;;
18042;SDS011;9146;48.074;11.968;2023-02-01T15:08:59;4.87;;;2.70;;
18042;SDS011;9146;48.074;11.968;2023-02-01T15:11:29;4.47;;;2.50;;
18042;SDS011;9146;48.074;11.968;2023-02-01T15:13:56;2.30;;;2.13;;
18042;SDS011;9146;48.074;11.968;2023-02-01T15:16:25;3.70;;;2.17;;
18042;SDS011;9146;48.074;11.968;2023-02-01T15:19:06;4.20;;;2.80;;
18042;SDS011;9146;48.074;11.968;2023-02-01T15:21:43;3.73;;;2.40;;
18042;SDS011;9146;48.074;11.968;2023-02-01T15:24:12;6.63;;;2.63;;
18042;SDS011;9146;48.074;11.968;2023-02-01T15:26:40;3.23;;;2.00;;
18042;SDS011;9146;48.074;11.968;2023-02-01T15:29:10;2.43;;;2.10;;
18042;SDS011;9146;48.074;11.968;2023-02-01T15:31:38;5.30;;;2.80;;
18042;SDS011;9146;48.074;11.968;2023-02-01T15:34:07;3.20;;;1.73;;
18042;SDS011;9146;48.074;11.968;2023-02-01T15:36:35;6.60;;;3.10;;
18042;SDS011;9146;48.074;11.968;2023-02-01T15:41:56;3.50;;;2.37;;
18042;SDS011;9146;48.074;11.968;2023-02-01T15:44:30;5.27;;;3.00;;
18042;SDS011;9146;48.074;11.968;2023-02-01T15:46:59;8.07;;;2.63;;
18042;SDS011;9146;48.074;11.968;2023-02-01T15:49:36;5.17;;;2.40;;
18042;SDS011;9146;48.074;11.968;2023-02-01T15:52:17;3.10;;;2.47;;